Hastings Natural History Reservation, California Weather observations

Data are for 10 minute period ending at time listed.
 Day   Time   Solar   Ave.   Ave.  Ave.  Vector  Max.   Baro.   Total    
  of    of     Rad.   Air    Rel.  Wind   Wind   Wind  Press.  Precip.   
Year   Day            Temp.  Hum.  Speed  Dir.   Gust                    
2017   (PST)  Kw/m2    F      %     mph   deg.    mph    mb.     in.     
-------------------------------------------------------------------------
  54    9:10   0.10   38.0    82    3.8   243     7.1   957.9    0.00 
  54    9:20   0.14   38.3    80    4.3   240     9.1   957.9    0.00 
  54    9:30   0.14   38.8    78    3.9   251     8.1   958.0    0.00 
  54    9:40   0.17   39.1    76    3.8   258     9.3   957.9    0.00 
  54    9:50   0.16   40.0    74    1.9   347     6.0   958.0    0.00 
  54   10:00   0.17   40.4    74    4.2   253     9.5   957.8    0.00 
  54   10:10   0.17   40.5    74    4.7   261    10.9   957.9    0.00 
  54   10:20   0.19   40.8    69    3.8   250    11.0   958.0    0.00 
  54   10:30   0.16   41.2    69    3.1   249     8.3   958.0    0.00 
  54   10:40   0.17   42.2    64    4.3   354    11.6   958.0    0.00 
  54   10:50   0.12   41.8    65    3.8   258     9.4   957.9    0.00 
  54   11:00   0.12   41.9    64    4.6   248    11.5   957.8    0.00 
  54   11:10   0.13   42.9    59    4.0   267     9.3   957.7    0.00 
  54   11:20   0.09   42.9    53    3.1   273    11.8   957.7    0.00 
  54   11:30   0.12   42.8    56    3.1   265     9.9   957.6    0.00 
  54   11:40   0.14   43.5    56    5.1   245    13.7   957.5    0.00 
  54   11:50   0.13   43.3    52    5.8   247    10.8   957.4    0.00 
  54   12:00   0.15   43.8    55    3.0   329     9.3   957.3    0.00 
  54   12:10   0.59   44.0    57    4.6   274    14.0   957.3    0.00 
  54   12:20   0.71   44.0    53    4.8   250    12.6   957.3    0.00 
  54   12:30   0.77   45.2    53    3.1   278     8.2   957.3    0.00 
  54   12:40   0.56   45.4    52    3.0   252     9.1   957.3    0.00 
  54   12:50   0.65   45.0    54    4.1   269    12.4   957.3    0.00 
  54   13:00   0.78   45.2    51    4.4   252    12.5   957.2    0.00 
  54   13:10   0.37   45.3    52    4.3   255    13.0   957.2    0.00 
  54   13:20   0.22   44.3    50    4.7   258    12.3   957.1    0.00 
  54   13:30   0.28   44.1    50    5.1   248    13.1   957.0    0.00 
  54   13:40   0.68   45.1    48    5.1   245    11.8   956.9    0.00 
  54   13:50   0.82   46.3    47    4.3   257    11.4   956.9    0.00 
  54   14:00   0.74   47.2    44    4.7   263    15.3   956.9    0.00 
  54   14:10   0.68   47.0    46    4.4   285    11.6   956.8    0.00 
  54   14:20   0.59   46.8    46    4.5   255    11.4   956.9    0.00 
  54   14:30   0.62   45.5    47    7.7   245    16.8   956.8    0.00 
  54   14:40   0.59   45.6    44    5.7   251    12.9   956.8    0.00 
  54   14:50   0.57   46.4    43    5.0   252    12.3   956.8    0.00 
  54   15:00   0.38   46.5    45    3.8   296    11.7   956.8    0.00 
  54   15:10   0.35   45.9    46    2.9   272     9.6   956.8    0.00 
  54   15:20   0.38   45.2    46    5.7   250    13.6   956.8    0.00 
  54   15:30   0.38   45.2    46    4.7   254     9.6   956.8    0.00 
  54   15:40   0.27   45.7    47    3.2   304     7.4   956.8    0.00 
  54   15:50   0.11   44.4    50    3.5   254     8.8   956.8    0.00 
  54   16:00   0.40   44.3    50    3.4   257     9.4   956.8    0.00 
  54   16:10   0.23   45.2    51    3.5   249     9.6   956.8    0.00 
  54   16:20   0.22   43.8    53    3.4   248     9.2   956.8    0.00 
  54   16:30   0.14   43.3    55    3.6   250     8.6   956.8    0.00 
  54   16:40   0.15   43.6    56    3.5   272     8.8   956.7    0.00 
  54   16:50   0.07   43.1    59    2.1   350     7.1   956.6    0.00 
  54   17:00   0.13   42.9    60    2.8   305     9.2   956.6    0.00 
  54   17:10   0.18   43.1    58    4.9   248    10.9   956.6    0.00 
  54   17:20   0.12   42.3    59    5.0   251    11.3   956.7    0.00 
  54   17:30   0.08   42.0    59    3.9   254     9.8   956.8    0.00 
  54   17:40   0.02   41.2    60    2.5   256     8.7   956.8    0.00 
  54   17:50   0.00   40.7    62    3.3   261     9.2   956.8    0.00 
  54   18:00   0.00   40.6    63    1.0   267     4.1   956.8    0.00 
  54   18:10   0.00   40.4    63    3.0   260     7.4   956.9    0.00 
  54   18:20   0.00   40.0    63    3.3   252     8.2   956.8    0.00 
  54   18:30   0.00   40.0    64    1.3   290     4.7   956.9    0.00 
  54   18:40   0.00   39.6    65    1.0   257     3.7   956.8    0.00 
  54   18:50   0.00   39.4    67    0.7   256     2.7   956.8    0.00 
  54   19:00   0.00   39.5    67    0.8   252     2.0   956.8    0.00 
  54   19:10   0.00   39.1    67    1.8   241     3.1   956.8    0.00 
  54   19:20   0.00   39.0    68    1.3   245     2.6   956.7    0.00 
  54   19:30   0.00   39.0    67    0.6   255     2.4   956.7    0.00 
  54   19:40   0.00   38.8    67    1.5   243     2.9   956.8    0.00 
  54   19:50   0.00   38.8    68    0.7   240     1.9   956.8    0.00 
  54   20:00   0.00   39.0    69    0.1   266     1.0   956.9    0.00 
  54   20:10   0.00   39.0    68    0.5   307     1.7   957.0    0.00 
  54   20:20   0.00   39.1    69    0.9     7     2.1   957.0    0.00 
  54   20:30   0.00   39.3    68    0.2   341     1.7   957.1    0.00 
  54   20:40   0.00   39.3    68    1.3   359     3.6   957.2    0.00 
  54   20:50   0.00   39.3    68    0.7   349     2.6   957.3    0.00 
  54   21:00   0.00   39.4    68    0.4    26     2.1   957.2    0.00 
  54   21:10   0.00   39.1    69    0.7    26     2.3   957.3    0.00 
  54   21:20   0.00   39.0    70    0.1    42     0.9   957.4    0.00 
  54   21:30   0.00   38.8    70    0.2    36     1.0   957.4    0.00 
  54   21:40   0.00   38.6    71    0.0    38     0.7   957.5    0.00 
  54   21:50   0.00   37.9    74    0.0    48     0.7   957.6    0.00 
  54   22:00   0.00   37.0    76    0.1   244     1.2   957.6    0.00 
  54   22:10   0.00   36.2    78    0.3   246     1.8   957.6    0.00 
  54   22:20   0.00   35.5    79    0.1   218     1.2   957.6    0.00 
  54   22:30   0.00   35.2    79    0.0    75     0.7   957.6    0.00 
  54   22:40   0.00   34.7    80    0.2   246     0.9   957.5    0.00 
  54   22:50   0.00   33.9    81    0.1    38     0.7   957.4    0.00 
  54   23:00   0.00   33.5    84    1.3    44     1.8   957.4    0.00 
  54   23:10   0.00   33.5    84    0.2    21     1.2   957.4    0.00 
  54   23:20   0.00   33.2    85    0.2    68     1.2   957.4    0.00 
  54   23:30   0.00   33.0    85    0.0     0     0.0   957.6    0.00 
  54   23:40   0.00   32.6    86    0.3    93     2.6   957.7    0.00 
  54   23:50   0.00   32.5    86    0.5    94     3.0   957.7    0.00 
  55    0:00   0.00   32.3    87    0.1   100     1.2   957.8    0.00 
  55    0:10   0.00   32.1    87    0.6    82     3.3   958.0    0.00 
  55    0:20   0.00   31.8    87    0.5   120     3.0   958.0    0.00 
  55    0:30   0.00   31.2    87    0.4   128     2.5   958.1    0.00 
  55    0:40   0.00   31.0    88    0.1   195     0.9   958.3    0.00 
  55    0:50   0.00   31.3    89    0.2   145     1.3   958.4    0.00 
  55    1:00   0.00   31.9    89    0.1   215     1.2   958.3    0.00 
  55    1:10   0.00   32.5    89    0.4   237     1.2   958.2    0.00 
  55    1:20   0.00   32.7    89    0.4   243     1.7   958.2    0.00 
  55    1:30   0.00   32.8    88    0.2   238     1.1   958.1    0.00 
  55    1:40   0.00   32.7    88    0.1   303     0.7   957.9    0.00 
  55    1:50   0.00   32.4    87    0.0     0     0.0   957.8    0.00 
  55    2:00   0.00   31.8    88    0.4    70     1.3   957.8    0.00 
  55    2:10   0.00   31.4    88    0.0     0     0.0   957.7    0.00 
  55    2:20   0.00   31.2    89    0.2    65     1.8   957.6    0.00 
  55    2:30   0.00   31.3    90    0.3    76     2.9   957.6    0.00 
  55    2:40   0.00   31.4    90    1.1    82     2.6   957.5    0.00 
  55    2:50   0.00   32.5    90    2.9    82     5.0   957.4    0.00 
  55    3:00   0.00   33.3    85    3.5    77     5.6   957.2    0.00 
  55    3:10   0.00   33.3    83    3.0    74     5.0   957.1    0.00 
  55    3:20   0.00   32.9    83    2.8    80     4.5   956.9    0.00 
  55    3:30   0.00   32.8    82    3.4    75     6.0   957.0    0.00 
  55    3:40   0.00   32.7    82    3.4    73     6.1   956.9    0.00 
  55    3:50   0.00   32.8    82    3.2    68     5.0   957.1    0.00 
  55    4:00   0.00   32.5    82    3.3    78     6.5   957.0    0.00 
  55    4:10   0.00   32.7    81    3.7    79     5.8   957.0    0.00 
  55    4:20   0.00   32.5    81    2.9    83     5.2   957.1    0.00 
  55    4:30   0.00   32.8    80    3.6    82     5.6   957.2    0.00 
  55    4:40   0.00   32.7    80    3.2    89     5.5   957.2    0.00 
  55    4:50   0.00   32.7    79    2.7    75     5.5   957.2    0.00 
  55    5:00   0.00   32.8    78    3.0    85     4.9   957.4    0.00 
  55    5:10   0.00   32.6    78    2.3    92     4.8   957.3    0.00 
  55    5:20   0.00   32.4    78    3.0    92     5.6   957.2    0.00 
  55    5:30   0.00   32.6    76    2.2   105     4.7   957.3    0.00 
  55    5:40   0.00   31.6    78    1.0    76     2.0   957.4    0.00 
  55    5:50   0.00   30.9    82    1.3    79     3.8   957.5    0.00 
  55    6:00   0.00   29.7    83    0.4    88     1.7   957.6    0.00 
  55    6:10   0.00   29.9    86    1.8    83     3.2   957.5    0.00 
  55    6:20   0.00   30.8    82    1.8   105     3.9   957.6    0.00 
  55    6:30   0.00   30.7    79    1.0   108     3.9   957.6    0.00 
  55    6:40   0.00   28.8    82    0.7   114     3.4   957.6    0.00 
  55    6:50   0.00   28.2    85    0.8   121     2.2   957.6    0.00 
  55    7:00   0.00   27.6    87    0.7   183     2.3   957.7    0.00 
  55    7:10   0.00   28.0    88    0.5   236     1.8   957.9    0.00 
  55    7:20   0.01   28.0    88    0.0   289     0.4   958.1    0.00 
  55    7:30   0.01   28.2    88    0.4   106     2.3   958.1    0.00 
  55    7:40   0.01   28.8    89    0.9    95     2.9   958.2    0.00 
  55    7:50   0.01   28.6    89    0.2   133     1.8   958.4    0.00 
  55    8:00   0.01   28.9    89    0.8   214     2.9   958.6    0.00 
  55    8:10   0.01   29.8    90    0.7   262     2.9   958.7    0.00 
  55    8:20   0.01   31.6    87    1.5    62     3.4   958.7    0.00 
  55    8:30   0.02   32.8    83    0.2    89     2.1   958.7    0.00 
  55    8:40   0.03   34.0    82    1.2    88     2.6   958.6    0.00 
  55    8:50   0.03   35.9    77    0.8   197     2.0   958.6    0.00 
  55    9:00   0.03   37.7    69    0.7    44     2.0   958.6    0.00 

Return to Hastings Natural History Reservation graphs page.


Western Regional Climate Center,wrcc@dri.edu